Date,TemperatureHighF,TemperatureAvgF,TemperatureLowF,DewpointHighF,DewpointAvgF,DewpointLowF,HumidityHigh,HumidityAvg,HumidityLow,PressureMaxIn,PressureMinIn,WindSpeedMaxMPH,WindSpeedAvgMPH,GustSpeedMaxMPH,PrecipitationSumIn
2013-1-1,46.0,39.5,34.0,43.0,37.3,33.4,98,92,75,30.07,29.58,13,6,17,0.01
2013-1-2,54.5,49.5,43.3,53.1,48.7,42.6,98,97,94,30.32,30.07,12,4,15,0.00
2013-1-3,54.0,51.1,49.1,52.7,50.2,48.6,98,97,92,30.56,30.32,13,3,13,0.00
2013-1-4,51.4,49.5,45.7,50.0,48.2,44.8,98,95,90,30.59,30.50,9,3,16,0.00
2013-1-5,53.1,50.6,47.5,52.0,49.4,45.9,98,96,90,30.50,30.38,0,0,0,0.01
2013-1-6,51.8,50.2,48.4,50.5,49.4,47.8,98,97,93,30.50,30.22,0,-14,0,0.00
2013-1-7,52.2,51.6,50.2,51.6,51.1,49.6,98,98,98,30.22,30.01,0,0,0,0.09
2013-1-8,53.1,46.5,32.0,52.5,45.1,31.5,98,95,81,30.29,30.01,9,1,13,0.08
2013-1-9,35.2,32.0,29.7,34.7,31.5,29.1,98,98,98,30.26,29.98,0,0,3,0.01
2013-1-10,48.0,39.5,30.6,46.2,38.0,30.0,98,95,76,30.01,29.86,15,3,20,0.06
2013-1-11,49.1,37.9,28.6,48.2,37.0,28.0,98,97,88,30.01,29.71,9,2,12,0.02
2013-1-12,46.0,41.8,33.4,43.3,39.7,32.9,98,92,81,30.04,29.65,11,5,14,0.00
2013-1-13,37.2,32.3,28.2,36.7,31.8,27.7,98,98,98,30.14,30.01,8,1,9,0.04
2013-1-14,44.8,38.0,30.9,40.8,36.2,30.4,98,93,77,30.08,29.86,23,6,24,0.10
2013-1-15,39.4,35.1,29.3,37.6,34.2,28.8,98,96,86,29.89,29.65,12,2,16,0.02
2013-1-16,43.9,40.5,37.4,43.3,39.9,36.9,98,98,98,29.80,29.65,7,2,11,0.31
2013-1-17,47.3,44.6,41.4,46.8,44.1,40.8,98,98,98,29.80,29.40,20,5,25,0.26
2013-1-18,45.9,41.6,35.4,45.1,40.4,34.9,98,96,83,29.40,29.16,23,5,28,0.21
2013-1-19,37.4,35.6,31.8,36.9,34.8,31.3,98,97,92,29.58,29.25,6,1,9,0.01
2013-1-20,36.1,34.7,32.7,33.3,31.3,28.9,98,87,77,29.52,29.31,8,3,11,0.00
2013-1-21,40.3,34.2,28.6,34.2,31.9,28.0,98,92,71,29.34,29.28,5,1,7,0.00
2013-1-22,37.9,30.3,26.4,35.4,29.3,25.9,98,96,85,29.68,29.34,9,2,10,0.00
2013-1-23,39.0,31.4,24.6,36.3,30.2,24.1,98,95,81,29.74,29.59,8,2,11,0.00
2013-1-24,43.3,37.3,30.7,42.6,36.3,30.2,98,96,83,29.89,29.74,9,2,13,0.00
2013-1-25,48.4,44.9,40.6,47.8,43.9,36.5,98,96,83,29.80,29.28,26,10,29,0.90
2013-1-26,53.8,44.8,36.3,53.2,43.4,35.2,98,95,79,29.68,28.94,17,7,35,0.15
2013-1-27,49.6,40.7,35.2,47.7,37.0,32.0,98,87,68,29.43,28.94,24,11,49,0.18
2013-1-28,51.3,44.2,34.3,49.5,39.5,32.4,98,85,63,29.49,29.07,33,11,33,0.35
2013-1-29,56.5,48.0,39.2,54.5,45.9,37.2,98,92,74,29.40,29.16,28,6,32,0.09
2013-1-30,49.3,45.4,39.7,45.0,38.5,32.9,96,77,55,29.80,29.34,39,12,50,0.01
2013-1-31,49.8,44.6,40.6,47.3,38.2,33.8,98,79,64,29.74,29.52,26,12,37,0.17
2013-2-1,48.6,40.4,34.5,42.4,36.2,30.7,98,85,71,29.86,29.46,23,9,30,0.02
2013-2-2,47.1,39.1,34.0,38.1,35.4,32.4,98,87,59,30.26,29.86,10,3,13,0.00
2013-2-3,52.9,48.2,39.0,49.8,46.5,36.5,98,94,86,30.14,29.89,22,8,27,0.09
2013-2-4,50.5,44.1,34.5,49.8,37.0,30.2,98,77,60,29.98,29.71,28,15,39,0.12
2013-2-5,46.6,38.5,33.1,41.0,35.2,31.8,98,88,74,29.74,29.43,28,13,34,0.12
2013-2-6,45.7,38.5,31.6,36.0,32.1,29.1,98,79,54,30.23,29.74,22,9,24,0.00
2013-2-7,46.9,37.7,30.0,45.9,35.7,29.5,98,93,79,30.23,29.92,26,6,35,0.15
2013-2-8,49.1,42.4,37.2,43.2,38.9,36.3,98,88,76,30.23,30.14,13,7,17,0.00
2013-2-9,49.3,43.8,37.4,46.0,42.0,36.9,98,94,78,30.17,29.62,8,2,9,0.07
2013-2-10,47.3,44.0,40.6,46.8,41.7,35.4,98,92,74,29.59,29.16,16,7,21,0.32
2013-2-11,41.7,39.7,37.4,41.0,38.6,36.7,98,96,87,29.74,29.16,11,4,16,0.00
2013-2-12,43.7,40.2,37.4,43.2,39.6,36.9,98,98,93,29.89,29.74,6,2,9,0.02
2013-2-13,55.4,48.1,41.2,52.3,47.2,40.6,98,97,83,29.86,29.65,16,7,21,0.29
2013-2-14,52.5,44.4,37.4,46.4,41.0,36.9,98,89,62,30.04,29.65,17,7,27,0.02
2013-2-15,49.1,40.4,30.7,45.9,37.1,30.2,98,89,64,30.08,30.04,8,2,9,0.00
2013-2-16,50.7,48.1,45.3,49.8,46.3,43.9,98,94,81,30.04,29.95,17,7,22,0.00
2013-2-17,50.5,46.2,41.4,45.0,40.8,36.0,93,82,66,29.95,29.86,17,9,25,0.00
2013-2-18,46.4,44.2,41.5,39.6,37.8,36.0,85,78,72,29.99,29.86,15,8,24,0.00
2013-2-19,50.5,43.6,33.6,40.8,38.2,32.9,98,82,57,30.01,29.98,11,4,13,0.00
2013-2-20,47.3,39.8,31.6,41.2,35.7,31.1,98,86,72,30.01,29.98,17,6,24,0.00
2013-2-21,41.2,37.1,33.3,32.9,28.4,23.5,81,71,61,30.08,30.01,21,9,24,0.00
2013-2-22,37.0,34.6,33.3,27.1,23.2,21.6,76,63,55,30.14,30.02,14,5,17,0.00
2013-2-23,38.8,35.0,33.1,30.4,27.8,21.9,88,76,51,30.29,30.11,10,2,11,0.00
2013-2-24,43.9,35.5,29.5,32.4,27.4,22.3,98,75,44,30.41,30.23,8,3,13,0.00
2013-2-25,46.6,35.3,28.0,33.8,29.5,26.2,98,81,53,30.51,30.38,8,2,10,0.00
2013-2-26,44.4,37.4,29.1,38.8,34.1,28.6,98,89,74,30.57,30.44,8,4,11,0.00
2013-2-27,49.8,41.2,35.4,39.7,36.9,33.6,98,85,61,30.60,30.51,10,3,13,0.00
2013-2-28,45.5,38.5,32.5,38.8,35.9,32.0,98,91,75,30.53,30.41,11,4,13,0.00
2013-3-1,48.9,40.0,31.6,41.7,34.5,28.8,98,82,54,30.41,30.38,9,3,11,0.00
2013-3-2,48.0,39.4,33.6,35.8,31.9,29.1,95,76,50,30.41,30.23,8,2,10,0.00
2013-3-3,46.6,36.3,27.9,39.2,31.6,27.3,98,84,61,30.23,29.92,11,4,14,0.00
2013-3-4,44.2,40.6,34.0,37.6,35.1,31.6,91,81,74,29.95,29.62,11,5,17,0.00
2013-3-5,52.2,39.8,28.8,40.5,33.3,28.2,98,80,55,29.62,29.43,8,2,12,0.00
2013-3-6,47.8,46.3,42.3,47.3,44.6,34.5,98,94,74,29.43,29.31,10,4,12,0.34
2013-3-7,48.7,47.9,46.2,48.2,47.3,45.7,98,98,97,29.31,29.13,11,5,15,0.13
2013-3-8,52.5,49.6,46.9,52.0,49.0,46.4,98,98,95,29.37,29.13,13,6,17,0.23
2013-3-9,54.1,48.7,42.6,51.1,46.9,42.1,98,94,75,29.58,29.37,15,7,17,0.12
2013-3-10,42.6,38.5,33.6,42.1,34.3,18.0,98,86,52,29.77,29.55,17,8,26,0.12
2013-3-11,35.8,31.7,28.6,26.4,22.2,17.4,84,68,50,29.96,29.77,20,9,25,0.01
2013-3-12,42.3,34.0,25.7,34.5,24.6,18.9,93,70,46,29.99,29.89,14,7,17,0.00
2013-3-13,49.1,37.5,29.7,40.1,33.7,29.1,98,88,52,30.01,29.89,17,4,18,0.09
2013-3-14,48.7,37.4,27.1,40.3,34.3,26.6,98,89,66,30.02,29.71,14,4,23,0.00
2013-3-15,49.8,42.4,33.1,41.9,37.4,32.5,98,84,57,29.68,29.28,15,6,23,0.07
2013-3-16,49.6,37.0,27.7,40.3,30.6,27.1,98,81,47,29.34,29.19,9,3,15,0.00
2013-3-17,47.5,36.8,27.1,40.6,33.3,26.6,98,88,67,29.34,29.06,23,5,25,0.01
2013-3-18,46.8,38.7,34.5,38.8,36.0,34.0,98,90,69,29.40,29.13,11,4,15,0.02
2013-3-19,40.8,37.1,34.2,35.4,33.4,31.3,95,86,74,29.49,29.37,8,5,13,0.00
2013-3-20,48.4,38.0,30.2,36.9,32.0,28.8,98,81,48,29.83,29.46,8,3,9,0.00
2013-3-21,44.6,41.0,35.8,44.1,39.1,32.9,98,93,83,29.80,29.37,27,11,30,0.46
2013-3-22,49.3,45.5,43.3,48.7,44.9,42.8,98,98,98,29.55,29.31,22,11,28,0.78
2013-3-23,43.3,40.5,37.8,42.8,38.3,34.0,98,92,85,29.83,29.55,14,6,16,0.01
2013-3-24,37.8,36.0,35.2,33.6,29.4,27.0,85,77,71,29.95,29.80,13,7,16,0.00
2013-3-25,40.1,36.2,34.3,27.1,23.6,20.5,72,60,49,30.01,29.92,13,7,15,0.00
2013-3-26,40.5,34.4,30.4,30.6,26.3,21.6,90,73,54,30.01,29.92,11,5,18,0.00
2013-3-27,41.7,33.9,26.2,31.3,26.3,21.4,93,75,50,29.95,29.89,11,5,16,0.02
2013-3-28,42.6,34.7,26.8,29.7,24.4,20.3,93,68,46,29.92,29.80,14,5,17,0.00
2013-3-29,43.3,37.0,33.8,25.0,22.4,21.2,65,55,47,29.83,29.74,15,7,20,0.00
2013-3-30,42.6,37.9,33.3,26.4,22.0,19.0,71,53,43,29.92,29.83,13,5,16,0.00
2013-3-31,41.7,39.5,35.6,32.2,27.6,23.4,77,62,53,29.89,29.77,20,9,23,0.00
2013-4-1,39.6,38.2,36.0,27.3,23.9,21.7,62,56,50,29.86,29.71,20,10,25,0.00
2013-4-2,47.8,39.8,32.9,28.0,25.0,21.0,80,57,39,30.10,29.83,17,7,19,0.00
2013-4-3,50.0,38.3,25.9,31.3,24.5,19.8,98,63,31,30.19,30.10,13,5,17,0.00
2013-4-4,48.9,38.4,28.6,31.1,25.1,21.0,92,62,38,30.19,30.10,15,6,24,0.00
2013-4-5,48.7,38.2,29.5,34.5,27.0,23.7,86,66,42,30.29,30.10,13,5,19,0.00
2013-4-6,52.2,37.3,23.5,33.3,27.6,21.4,96,71,44,30.29,30.19,10,3,13,0.00
2013-4-7,44.8,41.2,35.4,36.0,32.4,29.7,90,72,57,30.19,29.73,25,8,25,0.00
2013-4-8,50.7,44.5,39.9,34.0,31.1,28.9,69,60,46,29.73,29.40,18,8,26,0.00
2013-4-9,45.9,41.5,38.7,35.1,32.6,31.1,78,71,56,29.58,29.34,13,6,18,0.00
2013-4-10,52.0,44.9,39.2,46.6,40.0,34.0,98,84,64,29.58,29.43,11,4,13,0.13
2013-4-11,52.3,45.4,40.3,48.2,44.1,39.7,98,95,74,29.43,29.21,12,3,13,0.49
2013-4-12,55.9,46.6,38.1,46.0,40.3,34.5,98,81,51,29.68,29.25,15,6,21,0.00
2013-4-13,54.0,44.4,30.9,53.4,43.7,30.4,98,98,90,29.68,29.37,17,6,26,0.08
2013-4-14,54.1,51.8,47.7,52.5,48.8,45.3,98,90,77,29.58,29.40,24,10,28,0.15
2013-4-15,60.4,52.2,48.2,49.6,45.5,40.3,98,79,52,29.83,29.52,26,10,34,0.15
2013-4-16,59.4,52.4,46.9,45.7,38.5,29.8,89,62,35,29.98,29.52,26,11,30,0.00
2013-4-17,54.5,51.1,47.8,52.7,48.0,41.5,98,89,74,29.92,29.27,33,13,46,0.09
2013-4-18,54.3,47.9,44.2,45.3,41.1,34.0,95,79,47,30.16,29.40,29,15,42,0.07
2013-4-19,57.2,47.3,36.1,44.2,39.2,35.4,98,76,47,30.50,30.13,12,3,17,0.00
2013-4-20,57.6,45.5,32.9,44.6,39.0,32.4,98,80,46,30.50,30.22,15,4,17,0.00
2013-4-21,55.4,49.0,44.6,46.9,41.7,34.2,98,77,48,30.22,29.98,17,8,28,0.21
2013-4-22,60.3,50.7,45.1,54.3,46.0,41.7,98,85,60,30.04,29.86,22,7,25,0.08
2013-4-23,65.3,55.6,45.1,52.0,48.0,42.6,96,77,55,30.19,30.01,15,7,20,0.00
2013-4-24,61.2,54.8,51.4,52.7,51.1,48.7,98,88,70,30.25,30.13,15,6,18,0.01
2013-4-25,57.2,49.9,40.6,50.0,43.2,34.5,98,80,47,30.22,30.10,14,6,19,0.11
2013-4-26,51.4,42.3,34.9,40.1,35.8,32.4,98,79,49,30.22,30.10,22,7,28,0.06
2013-4-27,56.1,45.1,35.6,37.9,33.5,27.9,94,67,36,30.17,30.07,15,6,18,0.00
2013-4-28,54.7,47.9,42.1,49.5,39.2,32.5,98,73,52,30.16,29.89,21,10,28,0.04
2013-4-29,56.5,46.2,36.7,47.8,37.8,34.7,96,74,47,30.26,29.95,20,8,25,0.02
2013-4-30,55.2,46.0,33.4,41.7,36.2,32.9,98,72,45,30.35,30.29,10,3,12,0.00
2013-5-1,61.0,49.0,37.9,48.7,40.1,34.9,95,74,43,30.32,30.25,13,3,17,0.00
2013-5-2,60.3,49.1,35.4,44.1,39.8,34.9,98,73,47,30.32,30.16,13,4,16,0.00
2013-5-3,58.6,53.4,47.3,49.1,45.6,41.9,92,75,60,30.16,29.92,20,9,26,0.07
2013-5-4,61.5,52.4,45.0,51.1,44.0,38.7,98,76,44,30.07,29.83,22,9,23,0.04
2013-5-5,62.6,55.4,51.4,51.1,47.2,43.3,90,75,52,30.13,30.07,16,7,18,0.00
2013-5-6,59.5,53.8,50.0,50.0,47.8,44.8,96,81,60,30.13,30.04,12,5,16,0.00
2013-5-7,64.0,55.3,47.1,50.0,47.0,42.4,98,76,51,30.07,29.64,17,6,18,0.02
2013-5-8,59.7,52.9,46.4,54.0,46.6,36.5,98,81,51,29.64,29.31,25,11,30,0.26
2013-5-9,55.0,49.9,45.9,50.9,42.2,35.4,98,75,60,29.64,29.21,28,14,39,0.15
2013-5-10,56.8,50.4,44.1,51.6,43.8,33.6,98,80,42,29.77,29.64,28,11,32,0.12
2013-5-11,56.1,48.6,42.6,47.7,41.2,35.6,98,77,49,30.01,29.70,28,11,35,0.02
2013-5-12,59.2,50.5,42.4,53.1,46.1,37.4,98,85,67,30.01,29.86,27,10,32,0.03
2013-5-13,53.2,46.1,40.6,44.1,39.0,35.2,93,77,54,29.89,29.77,27,11,38,0.15
2013-5-14,57.6,45.6,37.9,47.5,39.9,32.7,98,82,45,29.77,29.37,17,6,23,0.13
2013-5-15,55.9,47.0,38.7,43.7,38.5,31.6,98,74,47,29.58,29.40,21,9,28,0.01
2013-5-16,54.7,46.5,40.1,42.8,38.8,34.0,98,76,52,29.61,29.43,11,4,15,0.00
2013-5-17,61.2,48.6,37.4,46.2,39.3,33.4,98,74,36,29.98,29.61,11,4,15,0.00
2013-5-18,58.1,48.6,39.7,50.2,44.1,37.9,98,85,56,29.98,29.79,14,6,24,0.00
2013-5-19,59.4,52.7,48.4,51.4,47.5,44.4,98,84,61,30.07,29.80,6,2,9,0.01
2013-5-20,58.3,54.5,51.1,53.6,51.8,47.7,97,91,82,30.16,30.04,13,6,17,0.00
2013-5-21,66.9,55.9,48.6,52.3,47.9,45.5,93,76,53,30.28,30.16,16,8,18,0.00
2013-5-22,60.4,52.9,46.9,48.6,41.8,36.5,94,67,47,30.32,30.25,17,8,22,0.01
2013-5-23,56.7,48.5,40.1,44.1,37.3,30.9,89,66,46,30.28,30.13,28,10,29,0.00
2013-5-24,57.4,48.3,41.2,42.4,38.9,34.2,96,72,45,30.25,30.07,17,7,23,0.04
2013-5-25,61.3,51.1,39.2,46.2,40.9,37.8,98,71,44,30.25,30.19,12,3,14,0.00
2013-5-26,61.7,52.2,42.1,50.0,46.4,41.5,98,81,60,30.22,29.83,17,5,22,0.00
2013-5-27,59.0,52.0,44.6,50.2,45.3,36.3,98,80,44,29.83,29.46,22,8,28,0.50
2013-5-28,60.4,49.7,38.5,50.9,45.1,37.9,98,85,52,29.70,29.52,13,4,18,0.28
2013-5-29,67.8,57.0,48.9,52.5,47.5,42.8,98,73,45,30.07,29.67,15,7,19,0.00
2013-5-30,68.4,57.1,45.5,50.7,46.4,42.4,97,70,44,30.25,30.07,17,7,24,0.00
2013-5-31,60.3,53.2,45.0,56.8,48.3,42.8,98,84,59,30.35,30.22,11,4,15,0.01
2013-6-1,61.3,52.4,42.4,48.9,44.6,41.7,98,76,51,30.47,30.35,17,6,18,0.00
2013-6-2,64.8,54.1,40.3,53.4,47.1,39.7,98,79,51,30.53,30.44,6,2,9,0.00
2013-6-3,65.1,59.0,49.6,56.5,53.3,46.9,98,82,60,30.53,30.50,8,1,8,0.00
2013-6-4,70.3,57.8,42.6,53.8,44.5,37.4,98,67,32,30.50,30.34,13,3,15,0.00
2013-6-5,69.8,57.7,42.8,52.0,46.5,42.1,98,69,45,30.34,30.19,11,4,15,0.00
2013-6-6,71.4,58.6,43.7,52.9,47.2,43.2,98,70,42,30.34,30.22,10,3,12,0.00
2013-6-7,73.8,60.9,45.5,55.2,46.1,40.6,98,64,33,30.40,30.31,12,5,16,0.00
2013-6-8,75.2,62.1,47.7,53.4,48.2,45.3,97,64,38,30.37,30.19,9,3,12,0.00
2013-6-9,71.1,59.1,44.6,52.7,47.3,36.9,98,68,38,30.22,30.04,11,4,15,0.00
2013-6-10,60.3,54.4,49.1,53.8,49.7,45.0,98,85,58,30.06,29.79,18,6,22,0.07
2013-6-11,66.2,57.2,53.1,62.4,55.4,52.5,98,94,75,29.82,29.61,15,6,16,0.19
2013-6-12,61.2,57.0,53.2,58.1,53.9,49.1,98,90,66,29.73,29.55,13,4,13,0.06
2013-6-13,62.6,56.3,51.4,54.3,49.0,41.0,98,79,47,29.98,29.58,23,8,26,0.07
2013-6-14,59.5,53.2,47.5,55.6,50.6,45.5,98,91,72,29.95,29.43,26,7,26,0.39
2013-6-15,61.2,51.9,42.1,54.0,47.2,41.5,98,85,52,29.80,29.55,25,9,26,0.02
2013-6-16,59.7,53.4,47.3,54.3,49.9,45.5,98,89,63,29.89,29.76,13,4,15,0.22
2013-6-17,64.0,57.5,52.0,56.7,53.8,51.3,98,88,68,30.04,29.89,9,3,13,0.06
2013-6-18,72.7,59.3,47.1,57.9,51.9,46.6,98,79,50,30.10,29.98,11,4,15,0.00
2013-6-19,68.9,58.9,49.5,52.3,48.8,44.8,98,71,45,30.16,30.10,13,4,15,0.00
2013-6-20,68.7,59.7,49.8,58.5,51.9,46.2,98,78,50,30.13,29.88,10,3,15,0.01
2013-6-21,65.7,58.6,53.8,56.7,52.1,45.1,98,81,51,29.95,29.67,14,6,19,0.02
2013-6-22,62.1,56.9,52.5,55.9,50.9,46.4,98,81,58,29.73,29.52,22,11,29,0.04
2013-6-23,60.1,55.3,51.3,54.0,48.3,43.2,98,78,60,30.25,29.73,29,12,31,0.07
2013-6-24,61.5,54.5,45.0,51.6,46.9,43.9,98,77,53,30.32,30.25,10,4,12,0.00
2013-6-25,63.9,57.9,50.9,55.4,51.8,48.7,94,81,67,30.50,30.32,11,3,11,0.00
2013-6-26,68.5,57.2,44.6,53.6,48.0,44.1,98,74,45,30.56,30.50,9,3,11,0.00
2013-6-27,72.3,59.2,46.0,60.6,53.5,45.5,98,82,60,30.56,30.38,17,6,21,0.00
2013-6-28,64.9,60.5,57.0,58.6,56.4,53.4,94,87,77,30.38,30.22,17,9,22,0.00
2013-6-29,70.9,60.5,50.0,61.5,55.1,49.3,98,84,60,30.38,30.25,22,7,23,0.00
2013-6-30,64.9,59.8,52.9,59.7,50.9,42.8,88,73,53,30.35,30.10,24,9,26,0.00
2013-7-1,64.4,57.1,50.0,51.6,47.2,43.0,94,71,47,30.13,29.98,14,6,21,0.00
2013-7-2,64.9,57.6,53.8,61.3,55.0,50.4,98,91,81,29.98,29.52,16,7,21,0.12
2013-7-3,68.2,60.2,53.6,61.0,54.8,50.7,98,83,67,29.95,29.61,15,7,17,0.00
2013-7-4,66.4,60.9,50.4,59.5,52.1,44.6,98,74,51,30.35,29.88,21,9,27,0.02
2013-7-5,70.9,57.9,45.0,55.4,49.4,44.4,98,76,50,30.47,30.35,13,3,13,0.00
2013-7-6,76.6,63.0,49.6,61.5,53.7,47.7,95,74,49,30.59,30.43,11,4,13,0.00
2013-7-7,78.4,69.5,62.8,65.8,62.6,58.5,94,80,60,30.71,30.59,8,3,11,0.00
2013-7-8,84.4,69.8,55.2,63.7,58.3,52.5,98,71,42,30.71,30.64,8,2,14,0.00
2013-7-9,84.0,70.8,55.6,63.9,58.3,54.9,98,69,39,30.65,30.52,8,-212,11,0.00
2013-7-10,84.7,71.0,57.2,63.7,57.9,48.6,98,68,30,30.55,30.43,9,-456,13,0.00
2013-7-11,81.0,68.8,56.1,62.8,58.5,55.0,98,73,45,30.49,30.43,9,3,11,0.00
2013-7-12,83.7,68.8,52.3,60.1,53.1,46.6,98,63,32,30.46,30.40,8,2,10,0.00
2013-7-13,82.9,69.7,57.0,64.2,59.4,54.3,98,73,44,30.49,30.43,10,3,13,0.00
2013-7-14,80.4,69.1,59.4,63.9,59.6,55.0,97,74,46,30.49,30.40,13,4,13,0.00
2013-7-15,72.0,63.2,56.5,55.9,53.9,51.1,91,73,50,30.43,30.37,9,4,13,0.00
2013-7-16,73.9,65.9,56.1,59.2,54.6,51.1,93,68,47,30.40,30.34,12,3,14,0.00
2013-7-17,79.5,68.9,60.4,60.1,55.8,51.3,92,65,40,30.46,30.37,7,3,10,0.00
2013-7-18,82.4,68.3,54.7,63.9,56.2,51.6,98,69,39,30.49,30.43,11,3,11,0.00
2013-7-19,84.6,69.4,53.2,62.4,55.3,49.1,98,66,32,30.49,30.37,12,4,13,0.00
2013-7-20,82.2,70.3,56.7,61.2,56.6,54.1,98,65,40,30.40,30.31,13,4,17,0.00
2013-7-21,73.8,66.7,59.2,60.4,56.3,51.3,96,71,50,30.34,30.16,11,4,13,0.00
2013-7-22,70.5,65.0,58.1,64.0,60.6,54.5,96,86,69,30.16,30.01,11,3,11,0.00
2013-7-23,69.8,64.7,61.2,65.8,61.2,57.7,98,89,68,30.01,29.91,13,4,15,0.76
2013-7-24,69.4,64.2,60.3,63.3,60.4,56.1,98,88,66,29.94,29.85,15,-52,19,0.23
2013-7-25,72.7,63.8,59.2,62.4,58.6,51.3,98,84,48,29.91,29.82,0,-999,0,0.12
2013-7-26,72.0,62.4,51.1,62.1,55.7,50.5,98,81,50,29.94,29.88,0,-999,0,0.17
2013-7-27,69.8,61.4,50.9,61.5,55.4,50.4,98,82,55,29.94,29.70,0,-999,0,0.02
2013-7-28,70.5,62.1,55.0,61.3,57.3,54.5,98,85,63,29.70,29.61,0,-999,0,0.09
2013-7-29,70.3,61.8,55.9,61.2,55.8,49.8,98,82,53,29.94,29.70,0,-999,0,0.11
2013-7-30,70.7,60.1,49.5,57.4,50.7,46.0,98,74,46,29.98,29.86,0,-999,0,0.00
2013-7-31,67.8,61.5,55.8,66.9,59.7,50.4,98,94,75,29.98,29.73,0,-999,0,0.54
2013-8-1,68.4,65.1,63.3,65.3,63.7,61.5,98,95,84,29.76,29.55,0,-999,0,0.63
2013-8-2,70.2,62.8,55.0,61.9,55.3,49.5,98,78,50,29.76,29.55,0,-999,0,0.02
2013-8-3,67.1,58.3,51.8,58.5,54.2,50.9,98,87,61,29.98,29.76,0,-999,0,0.23
2013-8-4,70.5,60.8,50.0,61.3,57.1,49.5,98,88,66,29.98,29.88,0,-999,0,0.40
2013-8-5,67.6,60.6,52.9,60.3,52.5,45.0,98,77,50,30.07,29.82,5,-935,9,0.00
2013-8-6,66.6,60.0,53.8,54.0,52.2,48.6,93,76,54,30.03,29.93,11,4,18,0.00
2013-8-7,72.7,60.8,47.8,57.9,50.7,45.1,98,73,40,30.07,29.94,11,2,14,0.00
2013-8-8,68.9,62.0,55.0,60.3,55.4,50.4,95,80,56,30.07,29.94,16,5,23,0.01
2013-8-9,64.4,59.6,54.1,57.0,50.2,45.0,96,73,53,30.26,30.01,15,8,21,0.00
2013-8-10,70.5,59.8,52.5,58.6,52.1,47.8,95,77,51,30.26,30.11,14,5,21,0.00
2013-8-11,67.3,58.2,52.3,54.5,49.7,44.6,98,75,49,30.14,30.08,18,8,28,0.00
2013-8-12,66.2,58.4,50.7,52.3,47.7,41.9,97,70,42,30.21,30.09,16,7,23,0.00
2013-8-13,64.8,59.3,51.1,54.9,52.3,44.2,93,78,64,30.24,30.18,13,5,16,0.00
2013-8-14,71.6,64.8,58.3,64.9,61.2,53.1,98,89,65,30.18,30.02,18,5,20,0.02
2013-8-15,68.7,64.3,59.9,65.5,62.7,58.8,98,95,80,30.03,29.83,13,5,20,0.43
2013-8-16,69.6,62.1,55.2,58.5,54.6,50.4,98,78,52,30.00,29.90,17,7,21,0.00
2013-8-17,72.3,63.0,55.6,66.6,57.7,51.6,98,83,58,29.92,29.55,27,9,39,0.21
2013-8-18,65.3,58.3,52.7,55.2,50.4,43.5,98,77,48,29.97,29.70,18,9,26,0.01
2013-8-19,68.4,59.0,50.9,54.7,51.3,46.6,97,77,46,30.31,29.97,18,7,27,0.00
2013-8-20,67.5,61.4,54.0,57.0,54.2,49.6,98,78,53,30.33,30.20,17,5,22,0.00
2013-8-21,72.7,65.4,60.4,60.8,57.9,54.9,93,78,57,30.19,30.12,18,7,21,0.00
2013-8-22,72.5,61.5,55.2,58.6,55.8,54.0,98,83,57,30.14,29.96,11,4,15,0.00
2013-8-23,64.0,60.0,56.3,61.0,57.2,48.6,98,91,68,30.02,29.88,14,4,20,0.09
2013-8-24,63.3,56.5,46.9,57.9,51.4,46.0,98,84,58,30.09,29.97,13,3,18,0.01
2013-8-25,66.0,59.7,52.3,58.6,55.8,51.8,98,88,68,30.22,29.99,15,6,18,0.01
2013-8-26,65.7,56.8,46.0,57.4,51.6,45.5,98,84,63,30.24,30.17,9,3,14,0.00
2013-8-27,68.5,61.5,55.4,62.2,57.5,54.0,98,87,72,30.26,30.16,12,3,16,0.01
2013-8-28,69.6,60.4,54.7,58.5,55.3,51.8,97,85,55,30.30,30.19,12,4,17,0.00
2013-8-29,72.3,63.3,54.5,60.3,57.0,52.5,97,81,55,30.20,30.11,14,5,18,0.00
2013-8-30,69.3,59.5,50.5,62.8,54.1,45.3,98,84,57,30.30,30.06,23,6,29,0.00
2013-8-31,64.6,53.9,42.6,48.6,44.7,40.3,98,74,47,30.51,30.30,17,5,22,0.00
2013-9-1,66.0,56.0,46.9,50.7,48.1,45.5,98,76,53,30.53,30.42,18,6,23,0.00
2013-9-2,69.3,62.4,56.7,61.9,57.0,49.3,93,83,72,30.43,30.38,16,6,19,0.00
2013-9-3,71.6,60.8,51.3,58.6,52.7,46.8,98,77,42,30.38,30.23,13,3,19,0.00
2013-9-4,70.7,57.9,43.3,57.4,50.4,42.8,98,79,44,30.23,29.94,17,4,23,0.00
2013-9-5,63.9,55.4,46.4,56.1,46.8,39.2,98,75,44,30.02,29.93,15,6,20,0.00
2013-9-6,62.2,50.2,40.3,46.2,41.3,36.1,98,75,41,29.96,29.91,16,6,22,0.00
2013-9-7,53.2,48.9,43.5,47.7,44.4,39.9,98,85,62,29.99,29.94,19,8,25,0.04
2013-9-8,59.5,53.1,46.9,50.9,46.5,39.4,98,80,48,30.04,29.98,14,6,17,0.04
2013-9-9,65.3,53.7,41.9,51.3,47.1,41.4,98,80,55,30.31,30.00,13,5,20,0.00
2013-9-10,63.3,55.0,45.3,53.1,49.1,44.6,98,82,57,30.40,30.31,16,7,24,0.00
2013-9-11,66.4,59.0,53.8,61.0,55.8,47.7,97,89,74,30.40,30.21,16,6,22,0.00
2013-9-12,66.2,62.4,56.5,63.9,60.6,54.1,98,94,85,30.21,30.06,15,6,19,0.01
2013-9-13,59.0,53.1,44.2,54.5,48.8,42.8,98,86,57,30.18,30.12,8,2,13,0.00
2013-9-14,64.0,51.2,43.2,48.9,43.6,39.2,98,78,43,30.19,30.09,10,2,15,0.00
2013-9-15,62.6,55.3,47.5,61.5,47.8,35.1,98,78,42,30.09,29.61,29,11,45,0.04
2013-9-16,57.0,50.2,45.7,46.4,40.9,36.5,89,71,49,29.77,29.70,24,11,36,0.03
2013-9-17,62.8,53.8,48.6,61.3,51.2,41.4,98,91,73,29.76,29.45,27,9,37,0.37
2013-9-18,57.7,52.6,47.1,53.6,46.4,41.5,98,81,55,29.95,29.55,17,7,25,0.04
2013-9-19,61.0,54.9,46.9,58.6,47.3,42.1,98,77,56,30.01,29.71,25,10,34,0.06
2013-9-20,64.2,55.9,50.9,55.8,47.1,42.8,93,73,51,30.13,30.01,12,4,16,0.00
2013-9-21,73.8,64.2,57.7,62.1,58.9,55.8,98,84,63,30.26,30.07,14,4,21,0.00
2013-9-22,70.5,59.4,47.3,60.3,54.4,46.8,98,85,57,30.34,30.27,13,3,17,0.00
2013-9-23,62.8,61.1,59.7,61.0,59.9,58.6,98,96,92,30.28,30.07,12,6,17,0.00
2013-9-24,62.6,60.3,56.7,60.4,58.6,55.6,98,94,90,30.07,29.93,9,3,15,0.00
2013-9-25,64.2,59.9,57.0,61.9,58.9,56.5,98,96,88,29.94,29.86,9,1,10,0.09
2013-9-26,65.1,59.1,53.6,62.2,57.4,53.1,98,94,80,30.00,29.91,11,2,16,0.00
2013-9-27,68.0,60.0,54.0,59.0,56.1,52.5,98,87,69,30.01,29.85,10,3,15,0.00
2013-9-28,67.5,57.9,48.7,56.1,51.6,47.3,98,82,52,29.86,29.71,15,3,19,0.04
2013-9-29,64.8,59.7,56.5,54.5,50.6,46.8,85,72,61,29.74,29.69,16,6,17,0.01
2013-9-30,60.4,58.9,57.4,59.5,56.4,52.5,98,92,82,29.69,29.63,13,6,18,0.07
2013-10-1,62.1,60.7,59.5,61.5,60.2,59.0,98,98,96,29.66,29.60,16,7,22,1.34
2013-10-2,65.5,61.9,59.5,62.8,60.9,59.0,98,96,84,29.62,29.57,18,8,24,0.34
2013-10-3,61.7,61.1,59.7,61.2,60.6,59.2,98,98,98,29.63,29.54,14,4,21,0.84
2013-10-4,63.3,58.1,48.9,59.2,55.3,48.0,98,91,71,30.01,29.58,14,6,22,0.02
2013-10-5,66.0,55.3,47.1,57.7,50.4,46.6,98,85,53,30.21,30.01,13,2,19,0.00
2013-10-6,65.8,59.5,47.8,63.3,58.3,47.3,98,96,88,30.22,30.17,13,3,16,0.00
2013-10-7,67.5,62.4,60.3,61.2,58.7,55.4,98,88,74,30.20,30.11,13,6,24,0.02
2013-10-8,62.6,58.2,54.7,60.4,54.6,49.1,98,88,71,30.33,30.16,13,4,19,0.00
2013-10-9,57.7,50.9,40.6,53.1,45.8,37.0,98,83,58,30.35,30.25,19,6,30,0.01
2013-10-10,55.2,43.5,35.4,42.6,37.7,34.9,98,83,48,30.44,30.34,12,4,19,0.00
2013-10-11,57.4,46.3,36.0,49.1,42.3,35.4,98,87,66,30.45,30.38,11,4,19,0.00
2013-10-12,56.8,52.5,49.6,50.7,48.1,46.0,95,85,71,30.38,30.19,11,3,17,0.00
2013-10-13,57.2,52.2,45.5,52.0,48.9,44.6,98,89,70,30.19,30.01,9,2,14,0.00
2013-10-14,58.3,49.6,42.4,48.4,45.2,41.0,98,86,58,30.03,29.91,10,3,15,0.00
2013-10-15,59.7,46.0,35.1,52.0,42.0,34.5,98,87,61,29.92,29.86,9,2,14,0.00
2013-10-16,61.7,54.3,46.9,53.2,49.2,45.7,98,84,59,29.86,29.53,20,7,25,0.93
2013-10-17,63.1,51.9,42.1,56.5,49.8,41.5,98,93,68,29.93,29.79,7,1,13,0.00
2013-10-18,57.7,56.4,52.7,57.2,55.5,50.9,98,97,87,29.90,29.51,21,7,32,0.57
2013-10-19,60.4,57.2,51.4,59.4,55.7,49.8,98,95,83,29.51,29.41,19,5,25,0.22
2013-10-20,59.5,54.9,46.8,55.0,51.8,46.2,98,90,71,29.60,29.29,17,6,26,0.04
2013-10-21,61.7,55.3,43.5,60.3,54.4,43.0,98,97,88,29.60,29.25,24,5,28,0.35
2013-10-22,62.4,58.1,54.0,59.0,56.3,53.4,98,94,78,29.26,29.07,18,5,22,0.13
2013-10-23,55.8,50.0,41.9,53.1,44.5,38.1,98,83,53,29.80,29.09,17,6,28,0.01
2013-10-24,59.5,50.7,39.9,57.2,49.6,39.4,98,96,83,29.86,29.57,15,5,23,0.17
2013-10-25,61.3,56.9,52.7,58.3,55.7,51.6,98,96,82,29.56,29.39,15,4,23,0.73
2013-10-26,56.3,52.3,49.6,54.9,49.6,44.2,98,90,75,29.57,29.25,17,4,30,0.18
2013-10-27,58.6,51.7,47.7,49.5,46.9,43.9,97,84,61,29.28,29.13,30,8,44,0.15
2013-10-28,52.9,48.3,45.3,47.8,43.8,38.7,98,85,60,29.70,29.10,19,9,34,0.01
2013-10-29,54.1,45.2,38.5,43.0,39.5,34.2,98,82,48,30.10,29.71,17,6,25,0.15
2013-10-30,56.5,47.0,36.1,55.9,44.6,35.6,98,92,71,30.09,29.81,24,4,29,0.06
2013-10-31,56.7,45.6,39.2,49.6,43.5,38.7,98,93,68,30.02,29.85,16,2,25,0.01
2013-11-1,51.6,43.2,34.7,49.3,41.3,34.2,98,93,70,29.87,29.67,8,0,10,0.01
2013-11-2,52.0,44.7,35.1,48.0,39.7,34.5,98,83,64,29.66,29.10,28,10,42,0.15
2013-11-3,49.6,44.1,37.8,41.7,39.3,36.7,96,84,67,29.62,29.30,19,6,32,0.04
2013-11-4,49.1,39.9,28.9,45.5,36.3,28.4,98,88,59,29.54,29.35,8,1,12,0.00
2013-11-5,50.9,48.2,46.2,48.7,42.9,39.2,98,82,65,29.53,29.31,23,8,34,0.04
2013-11-6,50.4,46.7,41.5,49.8,46.0,41.0,98,97,92,29.66,29.43,14,2,19,0.11
2013-11-7,51.6,41.8,33.1,42.8,38.4,32.5,98,89,66,29.71,29.67,18,2,23,0.01
2013-11-8,48.6,38.6,32.4,44.6,35.9,31.8,98,91,65,29.76,29.66,15,2,21,0.06
2013-11-9,46.0,37.9,29.8,43.7,36.8,29.3,98,96,82,29.83,29.68,11,1,16,0.07
2013-11-10,52.7,40.3,31.1,52.2,39.7,30.6,98,98,98,30.18,29.83,11,2,15,0.40
2013-11-11,57.4,53.7,49.1,56.8,52.2,48.2,98,95,84,30.26,29.98,12,2,18,0.01
2013-11-12,52.5,42.7,33.4,47.7,39.7,32.9,98,90,64,30.63,30.26,12,2,19,0.01
2013-11-13,51.4,41.0,30.6,47.3,38.2,30.0,98,90,72,30.64,30.24,27,6,30,0.02
2013-11-14,49.8,46.6,44.2,40.5,37.4,34.0,81,70,56,30.69,30.32,23,10,31,0.00
2013-11-15,50.9,46.1,43.2,44.6,41.6,38.1,93,85,75,30.70,30.59,6,0,10,0.00
2013-11-16,52.5,49.3,47.3,48.7,45.7,43.3,97,87,78,30.58,30.44,10,2,14,0.00
2013-11-17,56.1,50.9,48.6,53.2,50.0,47.7,98,97,85,30.44,30.02,7,0,11,0.02
2013-11-18,50.9,42.7,36.5,50.4,39.6,33.3,98,89,63,30.07,29.98,19,5,25,0.07
2013-11-19,43.2,36.8,32.4,40.3,31.8,29.5,96,83,61,30.27,30.07,15,5,20,0.00
2013-11-20,47.3,43.6,37.2,43.0,36.3,28.8,94,76,56,30.10,29.84,25,12,35,0.04
2013-11-21,42.4,36.7,32.0,31.1,29.9,28.4,93,77,59,30.23,29.96,20,5,30,0.00
2013-11-22,44.4,34.6,27.9,32.7,30.1,27.3,98,85,55,30.40,30.23,8,1,11,0.00
2013-11-23,42.8,35.4,25.7,40.8,34.4,25.2,98,96,86,30.53,30.40,7,0,9,0.00
2013-11-24,45.9,43.0,41.4,44.8,41.7,37.8,98,95,84,30.73,30.53,8,1,14,0.00
2013-11-25,44.6,40.7,36.7,40.1,37.8,34.0,98,90,73,30.84,30.71,7,0,9,0.00
2013-11-26,46.8,40.2,34.9,41.9,38.2,34.3,98,93,81,30.84,30.72,0,0,9,0.00
2013-11-27,48.9,43.0,36.0,46.2,41.5,35.4,98,95,84,30.73,30.66,5,0,9,0.00
2013-11-28,50.4,46.1,39.6,49.8,45.1,39.0,98,96,86,30.69,30.60,6,0,8,0.01
2013-11-29,49.3,46.2,41.4,48.7,40.1,36.5,98,79,66,30.61,30.45,22,9,26,0.01
2013-11-30,47.8,42.9,37.4,44.4,41.2,36.9,98,94,81,30.57,30.48,11,2,17,0.00
2013-12-1,48.6,45.7,43.7,46.8,42.9,39.2,98,90,76,30.61,30.56,0,0,6,0.00
2013-12-2,46.9,44.2,39.6,44.8,42.4,39.0,98,94,81,30.59,30.45,0,0,0,0.00
2013-12-3,49.3,42.9,33.8,47.3,41.3,33.3,98,94,80,30.45,30.32,13,2,22,0.01
2013-12-4,46.2,39.3,33.4,45.0,36.4,32.9,98,90,64,30.59,30.35,13,3,17,0.01
2013-12-5,51.6,44.2,35.8,46.4,39.6,34.3,96,84,71,30.52,30.24,29,10,37,0.08
2013-12-6,49.8,43.5,36.0,47.1,41.6,35.4,98,93,73,30.47,30.40,14,3,18,0.01
2013-12-7,49.6,44.5,42.1,45.1,43.0,41.5,98,95,79,30.41,30.20,13,3,15,0.01
2013-12-8,54.3,48.3,43.2,48.0,45.2,42.6,98,90,73,30.23,30.17,16,3,23,0.00
2013-12-9,53.2,47.4,38.7,48.9,44.2,38.1,98,89,72,30.27,30.16,19,5,24,0.01
2013-12-10,53.8,52.7,51.3,52.0,48.8,43.2,96,87,73,30.24,30.16,20,8,28,0.00
2013-12-11,53.1,51.3,49.5,51.4,47.1,44.6,95,86,78,30.24,30.03,19,8,29,0.00
2013-12-12,56.3,54.6,52.5,55.8,53.8,48.9,98,97,87,30.02,29.86,20,7,30,0.09
2013-12-13,54.5,48.3,36.7,54.0,43.3,33.4,98,83,61,30.12,29.75,18,7,36,0.13
2013-12-14,54.5,48.7,36.5,51.1,44.7,33.1,96,86,68,30.12,29.65,26,10,44,0.15
2013-12-15,54.9,47.9,38.3,50.0,43.4,34.2,98,85,72,30.00,29.63,26,7,31,0.13
2013-12-16,49.1,42.1,34.2,47.5,38.1,32.4,98,86,71,30.14,29.65,13,4,21,0.17
2013-12-17,48.6,38.4,27.7,44.8,34.2,27.1,98,86,67,30.20,29.75,17,4,32,0.02
2013-12-18,53.2,47.9,37.0,52.7,45.3,31.1,98,91,65,29.75,28.88,37,11,44,0.56
2013-12-19,40.6,36.7,34.3,36.0,33.4,29.7,98,88,76,29.84,29.25,17,7,34,0.12
2013-12-20,53.4,45.1,35.2,50.2,41.5,34.5,98,88,66,29.98,29.61,29,9,38,0.08
2013-12-21,49.6,44.3,38.8,46.8,39.8,33.4,96,84,71,29.74,29.45,22,8,32,0.39
2013-12-22,41.5,37.6,33.3,36.9,33.1,30.6,96,84,67,29.78,29.55,17,6,31,0.02
2013-12-23,52.5,46.6,32.5,50.7,42.4,28.6,98,86,56,29.74,28.51,24,10,41,0.31
2013-12-24,43.2,39.2,35.1,34.9,30.1,23.5,95,71,51,28.80,28.57,31,10,38,0.00
2013-12-25,37.0,30.1,26.2,36.3,29.4,25.7,98,97,92,29.21,28.79,0,0,6,0.00
2013-12-26,51.4,38.1,26.6,50.9,36.0,26.1,98,93,64,29.45,28.58,42,6,48,0.35
2013-12-27,48.4,43.3,38.3,39.7,35.3,29.8,87,74,62,29.15,28.52,46,16,51,0.09
2013-12-28,43.5,37.2,32.2,37.0,34.1,31.1,98,89,71,29.81,29.15,13,3,16,0.00
2013-12-29,50.7,39.8,28.0,50.2,38.7,27.5,98,96,80,29.98,29.51,22,6,36,0.59
2013-12-30,51.3,45.3,40.5,50.7,42.6,35.4,98,90,77,29.70,29.33,30,9,36,0.70
2013-12-31,48.6,42.2,37.9,46.9,39.0,33.3,98,89,74,29.45,29.26,26,6,36,0.60
2014-1-1,50.7,43.5,37.8,50.2,41.9,35.4,98,94,86,29.33,28.69,25,7,33,0.24
2014-1-2,49.1,43.0,36.5,48.6,39.7,33.6,98,89,61,29.26,28.88,26,6,41,0.23